createdAt,value
2023-04-14T00:01:45.942Z,1.10
2023-04-14T00:04:13.189Z,0.95
2023-04-14T00:06:41.625Z,0.85
2023-04-14T00:09:08.148Z,1.20
2023-04-14T00:11:34.616Z,1.38
2023-04-14T00:14:03.071Z,1.30
2023-04-14T00:16:33.213Z,1.40
2023-04-14T00:19:00.564Z,1.58
2023-04-14T00:21:27.214Z,0.85
2023-04-14T00:23:53.794Z,1.40
2023-04-14T00:26:20.360Z,1.02
2023-04-14T00:28:47.133Z,1.13
2023-04-14T00:31:13.751Z,1.98
2023-04-14T00:33:40.688Z,1.45
2023-04-14T00:36:07.412Z,1.17
2023-04-14T00:38:34.188Z,1.58
2023-04-14T00:41:00.970Z,1.15
2023-04-14T00:43:27.495Z,1.08
2023-04-14T00:45:54.590Z,1.60
2023-04-14T00:48:21.720Z,1.27
2023-04-14T00:50:51.696Z,1.05
2023-04-14T00:53:18.268Z,1.30
2023-04-14T00:55:45.058Z,1.05
2023-04-14T00:58:13.628Z,1.67
2023-04-14T01:03:07.483Z,1.23
2023-04-14T01:05:34.836Z,1.25
2023-04-14T01:08:03.419Z,2.20
2023-04-14T01:10:38.644Z,1.77
2023-04-14T01:13:19.796Z,1.02
2023-04-14T01:16:05.051Z,1.35
2023-04-14T01:18:59.602Z,2.45
2023-04-14T01:21:33.373Z,1.63
2023-04-14T01:24:21.814Z,1.45
2023-04-14T01:27:02.032Z,1.40
2023-04-14T01:29:58.240Z,1.60
2023-04-14T01:32:27.510Z,1.23
2023-04-14T01:34:57.677Z,1.27
2023-04-14T01:37:36.862Z,1.92
2023-04-14T01:40:12.955Z,1.83
2023-04-14T01:42:42.988Z,1.15
2023-04-14T01:45:37.115Z,1.42
2023-04-14T01:48:05.082Z,1.48
2023-04-14T01:50:34.761Z,1.27
2023-04-14T01:53:06.107Z,2.75
2023-04-14T01:55:34.368Z,1.65
2023-04-14T01:58:02.944Z,1.40
2023-04-14T02:00:30.011Z,1.38
2023-04-14T02:02:58.580Z,1.77
2023-04-14T02:05:26.262Z,1.45
2023-04-14T02:07:54.959Z,1.77
2023-04-14T02:10:23.476Z,1.05
2023-04-14T02:15:19.198Z,1.92
2023-04-14T02:17:49.828Z,1.70
2023-04-14T02:20:17.895Z,1.90
2023-04-14T02:22:44.444Z,1.63
2023-04-14T02:25:11.655Z,1.95
2023-04-14T02:27:51.090Z,1.67
2023-04-14T02:30:24.564Z,1.63
2023-04-14T02:33:01.842Z,1.58
2023-04-14T02:35:32.259Z,1.70
2023-04-14T02:38:09.069Z,1.67
2023-04-14T02:40:39.055Z,1.30
2023-04-14T02:43:13.362Z,2.47
2023-04-14T02:45:42.631Z,2.15
2023-04-14T02:48:13.798Z,2.33
2023-04-14T02:50:44.753Z,1.80
2023-04-14T02:53:12.768Z,2.40
2023-04-14T02:55:40.003Z,2.17
2023-04-14T02:58:07.236Z,1.90
2023-04-14T03:00:34.942Z,2.58
2023-04-14T03:03:04.278Z,2.50
2023-04-14T03:05:32.572Z,2.55
2023-04-14T03:08:00.772Z,2.05
2023-04-14T03:10:27.746Z,2.45
2023-04-14T03:12:54.601Z,2.25
2023-04-14T03:15:22.525Z,2.03
2023-04-14T03:17:54.476Z,2.80
2023-04-14T03:20:23.433Z,2.50
2023-04-14T03:23:01.183Z,2.25
2023-04-14T03:25:28.687Z,2.05
2023-04-14T03:28:01.913Z,2.63
2023-04-14T03:30:34.564Z,3.00
2023-04-14T03:33:09.017Z,2.65
2023-04-14T03:35:37.292Z,3.47
2023-04-14T03:38:09.063Z,2.70
2023-04-14T03:40:40.357Z,2.53
2023-04-14T03:43:09.960Z,3.28
2023-04-14T03:45:41.586Z,2.70
2023-04-14T03:48:13.318Z,3.05
2023-04-14T03:50:43.290Z,2.75
2023-04-14T03:53:12.749Z,2.40
2023-04-14T03:55:42.576Z,2.95
2023-04-14T03:58:13.110Z,2.28
2023-04-14T04:00:40.392Z,3.05
2023-04-14T04:03:07.381Z,3.17
2023-04-14T04:05:34.689Z,3.40
2023-04-14T04:08:03.240Z,3.17
2023-04-14T04:10:34.337Z,3.80
2023-04-14T04:13:02.914Z,4.38
2023-04-14T04:18:00.044Z,4.00
2023-04-14T04:20:28.716Z,4.25
2023-04-14T04:22:58.238Z,4.15
2023-04-14T04:25:25.598Z,4.30
2023-04-14T04:27:52.711Z,4.78
2023-04-14T04:30:20.539Z,4.75
2023-04-14T04:32:47.989Z,3.95
2023-04-14T04:35:15.523Z,4.38
2023-04-14T04:37:43.643Z,4.47
2023-04-14T04:40:11.122Z,3.58
2023-04-14T04:42:42.350Z,4.00
2023-04-14T04:45:09.750Z,4.45
2023-04-14T04:47:36.253Z,5.13
2023-04-14T04:50:02.838Z,5.40
2023-04-14T04:52:29.299Z,4.13
2023-04-14T04:54:55.964Z,4.72
2023-04-14T04:57:22.412Z,4.90
2023-04-14T04:59:49.155Z,5.03
2023-04-14T05:02:15.770Z,5.03
2023-04-14T05:04:42.836Z,5.80
2023-04-14T05:07:10.843Z,5.85
2023-04-14T05:09:37.297Z,5.00
2023-04-14T05:12:04.076Z,5.50
2023-04-14T05:14:30.736Z,5.20
2023-04-14T05:16:57.188Z,5.80
2023-04-14T05:19:23.803Z,5.00
2023-04-14T05:21:50.576Z,4.72
2023-04-14T05:24:19.621Z,5.40
2023-04-14T05:27:01.628Z,5.45
2023-04-14T05:29:32.869Z,4.70
2023-04-14T05:31:59.925Z,6.18
2023-04-14T05:34:26.711Z,5.07
2023-04-14T05:36:53.191Z,5.78
2023-04-14T05:39:21.730Z,5.10
2023-04-14T05:44:15.015Z,5.00
2023-04-14T05:46:41.752Z,5.63
2023-04-14T05:49:08.555Z,4.88
2023-04-14T05:51:36.263Z,5.15
2023-04-14T05:54:03.067Z,5.13
2023-04-14T05:56:29.981Z,5.25
2023-04-14T05:58:56.956Z,5.20
2023-04-14T06:01:23.596Z,4.85
2023-04-14T06:03:51.070Z,5.13
2023-04-14T06:06:20.506Z,5.07
2023-04-14T06:08:47.007Z,4.82
2023-04-14T06:11:14.470Z,5.60
2023-04-14T06:13:41.360Z,3.80
2023-04-14T06:16:08.324Z,4.97
2023-04-14T06:18:34.770Z,4.60
2023-04-14T06:21:01.730Z,4.60
2023-04-14T06:23:28.514Z,4.22
2023-04-14T06:25:55.655Z,4.65
2023-04-14T06:28:24.185Z,4.10
2023-04-14T06:30:52.983Z,4.30
2023-04-14T06:33:19.928Z,4.30
2023-04-14T06:35:48.021Z,4.40
2023-04-14T06:38:17.659Z,4.30
2023-04-14T06:40:47.979Z,3.97
2023-04-14T06:43:15.062Z,3.78
2023-04-14T06:45:41.725Z,5.00
2023-04-14T06:48:08.658Z,3.58
2023-04-14T06:50:36.320Z,3.72
2023-04-14T06:53:03.180Z,3.60
2023-04-14T06:55:29.690Z,3.60
2023-04-14T06:57:56.308Z,3.00
2023-04-14T07:00:23.379Z,4.03
2023-04-14T07:02:49.991Z,3.15
2023-04-14T07:05:17.614Z,3.42
2023-04-14T07:07:44.580Z,3.28
2023-04-14T07:10:11.185Z,3.05
2023-04-14T07:12:38.567Z,3.00
2023-04-14T07:15:05.765Z,2.90
2023-04-14T07:17:32.543Z,3.03
2023-04-14T07:19:59.472Z,2.92
2023-04-14T07:22:26.413Z,3.00
2023-04-14T07:24:53.947Z,2.67
2023-04-14T07:27:20.896Z,2.72
2023-04-14T07:29:47.465Z,3.05
2023-04-14T07:32:14.067Z,3.25
2023-04-14T07:34:46.306Z,3.05
2023-04-14T07:37:13.305Z,2.92
2023-04-14T07:39:40.806Z,2.35
2023-04-14T07:42:07.569Z,2.25
2023-04-14T07:44:34.500Z,2.38
2023-04-14T07:47:01.115Z,2.38
2023-04-14T07:49:27.656Z,2.10
2023-04-14T07:51:54.294Z,2.65
2023-04-14T07:54:20.947Z,2.03
2023-04-14T07:56:48.692Z,1.73
2023-04-14T07:59:15.630Z,2.45
2023-04-14T08:01:43.041Z,1.73
2023-04-14T08:04:10.583Z,1.73
2023-04-14T08:06:37.522Z,1.73
2023-04-14T08:09:04.286Z,1.42
2023-04-14T08:11:30.980Z,1.52
2023-04-14T08:13:57.492Z,1.02
2023-04-14T08:16:25.310Z,1.42
2023-04-14T08:18:52.300Z,0.93
2023-04-14T08:21:19.240Z,1.30
2023-04-14T08:23:46.247Z,1.17
2023-04-14T08:26:12.833Z,1.30
2023-04-14T08:28:39.309Z,1.55
2023-04-14T08:31:06.640Z,1.25
2023-04-14T08:33:33.896Z,1.30
2023-04-14T08:36:00.964Z,1.83
2023-04-14T08:38:28.925Z,1.25
2023-04-14T08:40:57.094Z,1.50
2023-04-14T08:43:23.833Z,1.02
2023-04-14T08:45:53.829Z,0.80
2023-04-14T08:48:22.492Z,1.70
2023-04-14T08:51:26.216Z,0.73
2023-04-14T08:53:55.245Z,1.60
2023-04-14T08:56:25.203Z,0.77
2023-04-14T08:58:52.156Z,1.00
2023-04-14T09:01:20.968Z,1.50
2023-04-14T09:03:48.937Z,1.30
2023-04-14T09:06:16.308Z,1.38
2023-04-14T09:08:43.065Z,1.73
2023-04-14T09:11:10.587Z,1.77
2023-04-14T09:13:39.624Z,1.35
2023-04-14T09:16:08.250Z,1.58
2023-04-14T09:18:36.494Z,0.80
2023-04-14T09:21:32.884Z,1.10
2023-04-14T09:23:50.532Z,1.25
2023-04-14T09:26:18.182Z,0.80
2023-04-14T09:28:44.738Z,1.20
2023-04-14T09:31:13.060Z,1.02
2023-04-14T09:33:44.110Z,0.88
2023-04-14T09:36:22.366Z,0.90
2023-04-14T09:38:50.893Z,0.73
2023-04-14T09:41:22.931Z,0.60
2023-04-14T09:43:50.218Z,0.77
2023-04-14T09:46:17.482Z,0.90
2023-04-14T09:48:56.893Z,0.70
2023-04-14T09:51:33.474Z,0.95
2023-04-14T09:54:05.014Z,1.05
2023-04-14T09:56:32.204Z,0.77
2023-04-14T09:59:01.561Z,0.80
2023-04-14T10:01:34.672Z,1.02
2023-04-14T10:04:02.499Z,0.55
2023-04-14T10:06:31.000Z,0.88
2023-04-14T10:08:57.574Z,1.00
2023-04-14T10:11:29.747Z,1.20
2023-04-14T10:14:00.389Z,0.90
2023-04-14T10:16:27.460Z,0.50
2023-04-14T10:18:55.577Z,1.25
2023-04-14T10:21:25.055Z,1.10
2023-04-14T10:23:52.619Z,0.90
2023-04-14T10:26:20.915Z,0.80
2023-04-14T10:28:53.754Z,1.00
2023-04-14T10:31:37.825Z,1.15
2023-04-14T10:34:25.706Z,0.95
2023-04-14T10:36:52.377Z,0.70
2023-04-14T10:39:24.362Z,0.60
2023-04-14T10:41:53.329Z,0.80
2023-04-14T10:44:34.856Z,0.82
2023-04-14T10:47:08.340Z,0.70
2023-04-14T10:49:39.615Z,0.80
2023-04-14T10:52:17.646Z,0.70
2023-04-14T10:55:01.096Z,0.45
2023-04-14T10:57:29.785Z,0.73
2023-04-14T10:59:59.122Z,0.77
2023-04-14T11:02:33.304Z,0.88
2023-04-14T11:05:06.574Z,0.55
2023-04-14T11:07:48.366Z,0.60
2023-04-14T11:10:18.442Z,0.77
2023-04-14T11:12:46.808Z,0.80
2023-04-14T11:17:45.919Z,0.60
2023-04-14T11:20:22.760Z,0.65
2023-04-14T11:22:54.200Z,0.80
2023-04-14T11:25:24.449Z,0.70
2023-04-14T11:27:53.010Z,1.05
2023-04-14T11:30:21.814Z,0.50
2023-04-14T11:32:54.234Z,0.98
2023-04-14T11:35:23.924Z,0.57
2023-04-14T11:37:54.350Z,0.52
2023-04-14T11:40:23.421Z,1.67
2023-04-14T11:42:55.665Z,1.30
2023-04-14T11:45:23.385Z,0.70
2023-04-14T11:47:50.132Z,0.60
2023-04-14T11:50:17.537Z,0.75
2023-04-14T11:52:46.338Z,0.55
2023-04-14T11:55:14.568Z,0.93
2023-04-14T11:57:47.360Z,0.40
2023-04-14T12:00:14.416Z,1.00
2023-04-14T12:02:45.898Z,0.80
2023-04-14T12:05:14.364Z,0.90
2023-04-14T12:07:45.616Z,1.15
2023-04-14T12:10:12.718Z,0.80
2023-04-14T12:12:39.496Z,0.63
2023-04-14T12:15:07.035Z,0.70
2023-04-14T12:17:34.155Z,1.27
2023-04-14T12:20:00.787Z,0.82
2023-04-14T12:22:29.156Z,0.70
2023-04-14T12:24:57.019Z,1.15
2023-04-14T12:27:25.149Z,1.05
2023-04-14T12:32:19.339Z,1.23
2023-04-14T12:34:58.033Z,0.95
2023-04-14T12:37:26.730Z,1.08
2023-04-14T12:39:58.640Z,0.85
2023-04-14T12:42:43.191Z,0.70
2023-04-14T12:45:10.889Z,0.90
2023-04-14T12:47:37.858Z,0.68
2023-04-14T12:50:31.070Z,1.80
2023-04-14T12:52:57.631Z,1.45
2023-04-14T12:55:28.677Z,0.85
2023-04-14T12:57:56.688Z,1.23
2023-04-14T13:00:27.472Z,1.40
2023-04-14T13:02:59.109Z,0.70
2023-04-14T13:05:25.980Z,0.40
2023-04-14T13:07:52.435Z,0.80
2023-04-14T13:10:20.256Z,1.15
2023-04-14T13:12:47.302Z,0.77
2023-04-14T13:16:12.011Z,0.73
2023-04-14T13:18:00.877Z,0.80
2023-04-14T13:20:27.505Z,0.82
2023-04-14T13:22:54.006Z,0.50
2023-04-14T13:25:20.786Z,0.63
2023-04-14T13:27:47.340Z,0.57
2023-04-14T13:30:14.404Z,0.47
2023-04-14T13:32:42.633Z,0.60
2023-04-14T13:35:09.656Z,0.63
2023-04-14T13:37:36.862Z,0.95
2023-04-14T13:42:52.230Z,0.75
2023-04-14T13:45:18.884Z,0.82
2023-04-14T13:47:49.152Z,0.50
2023-04-14T13:50:16.168Z,0.80
2023-04-14T13:52:42.889Z,0.73
2023-04-14T13:55:09.877Z,0.52
2023-04-14T13:57:36.925Z,1.00
2023-04-14T14:00:07.456Z,0.80
2023-04-14T14:02:34.319Z,1.00
2023-04-14T14:05:01.062Z,0.50
2023-04-14T14:07:28.646Z,0.80
2023-04-14T14:09:55.645Z,0.70
2023-04-14T14:12:22.454Z,0.60
2023-04-14T14:14:49.020Z,0.70
2023-04-14T14:17:15.757Z,0.95
2023-04-14T14:19:43.461Z,0.50
2023-04-14T14:22:10.302Z,0.90
2023-04-14T14:24:37.838Z,0.70
2023-04-14T14:27:04.530Z,0.85
2023-04-14T14:29:31.626Z,1.08
2023-04-14T14:31:58.206Z,0.63
2023-04-14T14:34:24.980Z,1.00
2023-04-14T14:36:51.731Z,0.70
2023-04-14T14:39:18.684Z,0.73
2023-04-14T14:41:46.873Z,0.75
2023-04-14T14:44:14.323Z,0.68
2023-04-14T14:46:41.319Z,1.05
2023-04-14T14:49:10.137Z,0.68
2023-04-14T14:51:36.983Z,1.15
2023-04-14T14:54:09.752Z,0.90
2023-04-14T14:56:37.388Z,0.65
2023-04-14T14:59:05.018Z,0.77
2023-04-14T15:01:33.133Z,0.80
2023-04-14T15:03:59.995Z,0.63
2023-04-14T15:06:28.294Z,0.70
2023-04-14T15:11:23.955Z,0.50
2023-04-14T15:13:50.821Z,0.45
2023-04-14T15:16:17.616Z,0.65
2023-04-14T15:18:44.881Z,0.60
2023-04-14T15:21:11.691Z,0.38
2023-04-14T15:23:39.711Z,1.42
2023-04-14T15:28:33.033Z,0.63
2023-04-14T15:30:59.772Z,1.00
2023-04-14T15:33:26.905Z,0.40
2023-04-14T15:35:53.759Z,0.57
2023-04-14T15:38:20.304Z,0.70
2023-04-14T15:40:47.220Z,0.63
2023-04-14T15:43:16.337Z,0.47
2023-04-14T15:45:43.097Z,0.50
2023-04-14T15:48:09.624Z,1.02
2023-04-14T15:50:44.848Z,0.50
2023-04-14T15:53:12.227Z,0.57
2023-04-14T15:58:08.479Z,0.60
2023-04-14T16:00:35.051Z,0.70
2023-04-14T16:03:02.281Z,0.50
2023-04-14T16:05:29.410Z,0.90
2023-04-14T16:07:56.110Z,0.60
2023-04-14T16:10:23.576Z,0.50
2023-04-14T16:12:51.716Z,1.00
2023-04-14T16:17:45.106Z,0.70
2023-04-14T16:20:14.820Z,0.65
2023-04-14T16:22:41.606Z,0.50
2023-04-14T16:25:09.086Z,0.77
2023-04-14T16:27:37.405Z,0.65
2023-04-14T16:30:04.429Z,0.85
2023-04-14T16:32:31.757Z,3.00
2023-04-14T16:34:58.377Z,1.80
2023-04-14T16:37:26.676Z,1.88
2023-04-14T16:39:55.048Z,0.93
2023-04-14T16:42:24.410Z,0.82
2023-04-14T16:44:53.443Z,1.73
2023-04-14T16:47:21.279Z,0.63
2023-04-14T16:49:50.363Z,1.20
2023-04-14T16:52:17.916Z,0.57
2023-04-14T16:54:47.509Z,0.70
2023-04-14T16:57:15.454Z,1.52
2023-04-14T16:59:42.020Z,0.80
2023-04-14T17:02:09.175Z,0.85
2023-04-14T17:04:35.977Z,1.02
2023-04-14T17:07:02.759Z,0.70
2023-04-14T17:09:29.216Z,0.70
2023-04-14T17:11:56.992Z,0.80
2023-04-14T17:14:23.539Z,0.90
2023-04-14T17:16:50.319Z,0.60
2023-04-14T17:19:17.167Z,0.82
2023-04-14T17:21:46.039Z,0.60
2023-04-14T17:24:12.698Z,1.10
2023-04-14T17:26:42.224Z,0.75
2023-04-14T17:29:09.687Z,0.77
2023-04-14T17:31:37.592Z,1.10
2023-04-14T17:34:10.408Z,0.90
2023-04-14T17:36:38.642Z,0.80
2023-04-14T17:39:06.775Z,0.75
2023-04-14T17:44:00.806Z,0.75
2023-04-14T17:46:33.705Z,0.88
2023-04-14T17:49:04.210Z,1.02
2023-04-14T17:51:31.478Z,0.43
2023-04-14T17:53:58.874Z,0.68
2023-04-14T17:56:26.965Z,0.85
2023-04-14T17:58:53.749Z,0.80
2023-04-14T18:01:20.348Z,1.00
2023-04-14T18:03:47.104Z,0.65
2023-04-14T18:06:14.016Z,0.70
2023-04-14T18:08:41.420Z,1.27
2023-04-14T18:11:09.951Z,1.08
2023-04-14T18:13:36.784Z,1.27
2023-04-14T18:16:04.323Z,1.05
2023-04-14T18:18:31.479Z,1.33
2023-04-14T18:20:59.308Z,1.23
2023-04-14T18:23:26.035Z,1.13
2023-04-14T18:28:30.312Z,0.80
2023-04-14T18:30:59.254Z,1.27
2023-04-14T18:33:26.743Z,0.95
2023-04-14T18:35:55.373Z,0.90
2023-04-14T18:38:22.384Z,1.00
2023-04-14T18:40:49.410Z,0.85
2023-04-14T18:43:17.454Z,0.90
2023-04-14T18:45:49.032Z,0.88
2023-04-14T18:48:16.698Z,0.70
2023-04-14T18:50:45.946Z,0.93
2023-04-14T18:53:12.561Z,0.88
2023-04-14T18:55:44.659Z,1.15
2023-04-14T18:58:15.036Z,2.00
2023-04-14T19:00:45.338Z,0.88
2023-04-14T19:03:12.750Z,1.05
2023-04-14T19:05:39.449Z,1.05
2023-04-14T19:08:07.606Z,0.90
2023-04-14T19:13:01.567Z,0.90
2023-04-14T19:15:28.753Z,1.02
2023-04-14T19:17:56.019Z,1.20
2023-04-14T19:20:24.262Z,1.25
2023-04-14T19:22:51.260Z,0.85
2023-04-14T19:25:18.538Z,0.95
2023-04-14T19:27:45.327Z,0.90
2023-04-14T19:30:12.440Z,1.30
2023-04-14T19:32:39.868Z,1.15
2023-04-14T19:35:09.235Z,1.20
2023-04-14T19:37:36.471Z,1.02
2023-04-14T19:40:06.225Z,1.35
2023-04-14T19:42:34.603Z,1.20
2023-04-14T19:45:01.289Z,1.17
2023-04-14T19:47:28.199Z,0.90
2023-04-14T19:49:55.268Z,0.88
2023-04-14T19:52:22.434Z,1.05
2023-04-14T19:54:49.973Z,1.00
2023-04-14T19:57:27.595Z,1.10
2023-04-14T19:59:55.333Z,1.73
2023-04-14T20:02:23.145Z,1.40
2023-04-14T20:04:57.965Z,3.13
2023-04-14T20:07:25.473Z,2.03
2023-04-14T20:09:52.915Z,1.63
2023-04-14T20:12:20.457Z,1.67
2023-04-14T20:14:47.289Z,1.60
2023-04-14T20:17:14.501Z,2.00
2023-04-14T20:19:42.132Z,1.98
2023-04-14T20:22:13.473Z,1.63
2023-04-14T20:24:44.168Z,1.42
2023-04-14T20:27:11.354Z,1.65
2023-04-14T20:29:38.688Z,1.95
2023-04-14T20:32:05.891Z,1.80
2023-04-14T20:34:33.256Z,1.25
2023-04-14T20:37:00.888Z,2.40
2023-04-14T20:39:29.059Z,2.40
2023-04-14T20:41:56.134Z,2.15
2023-04-14T20:44:24.220Z,2.47
2023-04-14T20:46:52.902Z,1.60
2023-04-14T20:49:23.226Z,2.33
2023-04-14T20:51:50.176Z,2.75
2023-04-14T20:54:17.240Z,2.08
2023-04-14T20:56:44.296Z,2.25
2023-04-14T20:59:14.359Z,2.05
2023-04-14T21:01:43.080Z,2.50
2023-04-14T21:04:10.576Z,1.67
2023-04-14T21:06:37.648Z,2.60
2023-04-14T21:09:05.651Z,2.65
2023-04-14T21:11:32.771Z,2.50
2023-04-14T21:15:40.656Z,2.08
2023-04-14T21:16:50.012Z,2.40
2023-04-14T21:19:17.381Z,2.05
2023-04-14T21:21:45.221Z,2.53
2023-04-14T21:24:17.861Z,2.25
2023-04-14T21:26:44.761Z,3.70
2023-04-14T21:29:11.797Z,2.65
2023-04-14T21:31:38.876Z,2.58
2023-04-14T21:34:06.650Z,2.33
2023-04-14T21:36:35.002Z,3.17
2023-04-14T21:39:02.668Z,2.95
2023-04-14T21:41:32.882Z,2.65
2023-04-14T21:43:59.825Z,3.20
2023-04-14T21:46:28.048Z,3.42
2023-04-14T21:51:22.554Z,2.90
2023-04-14T21:53:49.439Z,3.22
2023-04-14T21:56:16.762Z,2.70
2023-04-14T21:58:43.817Z,2.80
2023-04-14T22:01:11.821Z,3.42
2023-04-14T22:06:14.494Z,3.42
2023-04-14T22:08:41.846Z,3.10
2023-04-14T22:11:12.625Z,3.78
2023-04-14T22:13:39.765Z,2.83
2023-04-14T22:16:06.933Z,3.47
2023-04-14T22:18:34.021Z,3.00
2023-04-14T22:21:01.188Z,3.55
2023-04-14T22:23:29.167Z,2.92
2023-04-14T22:25:56.381Z,3.47
2023-04-14T22:28:23.652Z,3.08
2023-04-14T22:33:18.372Z,2.83
2023-04-14T22:35:46.024Z,3.30
2023-04-14T22:38:12.970Z,4.43
2023-04-14T22:40:43.307Z,3.60
2023-04-14T22:43:13.791Z,3.65
2023-04-14T22:45:42.041Z,3.47
2023-04-14T22:48:10.999Z,3.45
2023-04-14T22:50:39.175Z,3.90
2023-04-14T22:53:06.789Z,3.95
2023-04-14T22:55:33.907Z,3.75
2023-04-14T22:58:02.821Z,3.60
2023-04-14T23:00:29.507Z,3.38
2023-04-14T23:02:59.717Z,3.75
2023-04-14T23:05:26.945Z,3.65
2023-04-14T23:07:54.175Z,3.72
2023-04-14T23:10:24.324Z,3.92
2023-04-14T23:12:51.238Z,3.35
2023-04-14T23:15:20.648Z,3.55
2023-04-14T23:17:47.666Z,3.10
2023-04-14T23:20:17.370Z,3.72
2023-04-14T23:22:44.144Z,3.90
2023-04-14T23:25:11.029Z,3.97
2023-04-14T23:27:38.905Z,4.03
2023-04-14T23:30:08.794Z,5.28
2023-04-14T23:32:35.997Z,3.80
2023-04-14T23:35:03.951Z,3.67
2023-04-14T23:37:33.559Z,4.15
2023-04-14T23:40:01.088Z,3.28
2023-04-14T23:42:28.013Z,3.20
2023-04-14T23:44:57.079Z,3.97
2023-04-14T23:47:24.529Z,3.20
2023-04-14T23:49:51.958Z,3.20
2023-04-14T23:52:19.675Z,3.13
2023-04-14T23:54:46.623Z,2.72
2023-04-14T23:57:13.545Z,3.05
2023-04-14T23:59:40.752Z,3.25
